createdAt,value
2018-06-05T00:01:52.406Z,11.47
2018-06-05T00:04:23.637Z,11.10
2018-06-05T00:06:54.396Z,14.40
2018-06-05T00:09:24.852Z,11.23
2018-06-05T00:11:55.775Z,12.97
2018-06-05T00:14:25.996Z,10.10
2018-06-05T00:16:57.543Z,12.95
2018-06-05T00:19:28.514Z,12.00
2018-06-05T00:22:00.552Z,14.90
2018-06-05T00:24:31.101Z,13.73
2018-06-05T00:27:01.816Z,12.90
2018-06-05T00:29:32.253Z,16.00
2018-06-05T00:32:02.733Z,11.50
2018-06-05T00:34:33.388Z,14.77
2018-06-05T00:37:03.958Z,12.85
2018-06-05T00:39:34.601Z,12.23
2018-06-05T00:42:06.315Z,14.23
2018-06-05T00:44:36.945Z,11.57
2018-06-05T00:47:07.543Z,12.50
2018-06-05T00:49:38.855Z,12.77
2018-06-05T00:52:10.888Z,10.90
2018-06-05T00:54:41.342Z,13.87
2018-06-05T00:57:12.308Z,11.53
2018-06-05T00:59:42.898Z,15.30
2018-06-05T01:02:13.353Z,13.33
2018-06-05T01:04:44.385Z,13.37
2018-06-05T01:07:15.369Z,14.60
2018-06-05T01:09:46.077Z,13.27
2018-06-05T01:12:16.693Z,14.27
2018-06-05T01:14:47.327Z,17.17
2018-06-05T01:17:19.049Z,19.63
2018-06-05T01:19:50.718Z,23.20
2018-06-05T01:22:21.318Z,18.10
2018-06-05T01:24:52.106Z,12.57
2018-06-05T01:27:23.680Z,13.63
2018-06-05T01:29:54.127Z,15.03
2018-06-05T01:32:25.933Z,17.27
2018-06-05T01:34:56.654Z,13.95
2018-06-05T01:37:27.243Z,11.57
2018-06-05T01:39:57.745Z,17.40
2018-06-05T01:42:28.664Z,23.73
2018-06-05T01:44:59.758Z,16.67
2018-06-05T01:47:30.332Z,15.10
2018-06-05T01:50:01.258Z,12.30
2018-06-05T01:52:32.972Z,11.90
2018-06-05T01:55:03.876Z,16.77
2018-06-05T01:57:35.522Z,13.10
2018-06-05T02:00:06.069Z,15.45
2018-06-05T02:02:36.541Z,14.30
2018-06-05T02:05:07.844Z,15.98
2018-06-05T02:07:38.469Z,11.67
2018-06-05T02:10:08.964Z,12.33
2018-06-05T02:12:39.585Z,12.50
2018-06-05T02:15:10.584Z,15.03
2018-06-05T02:17:41.068Z,14.47
2018-06-05T02:20:11.652Z,13.50
2018-06-05T02:22:42.104Z,13.93
2018-06-05T02:25:12.603Z,15.53
2018-06-05T02:27:43.358Z,15.80
2018-06-05T02:30:13.840Z,17.30
2018-06-05T02:32:44.298Z,17.97
2018-06-05T02:35:15.081Z,15.53
2018-06-05T02:37:46.769Z,19.97
2018-06-05T02:40:17.304Z,14.57
2018-06-05T02:42:47.805Z,18.60
2018-06-05T02:45:18.820Z,20.47
2018-06-05T02:47:50.180Z,16.17
2018-06-05T02:50:20.743Z,12.50
2018-06-05T02:52:51.220Z,15.57
2018-06-05T02:55:21.852Z,16.70
2018-06-05T02:57:52.769Z,15.63
2018-06-05T03:00:23.234Z,15.37
2018-06-05T03:02:53.741Z,18.30
2018-06-05T03:05:24.387Z,18.17
2018-06-05T03:07:54.892Z,17.48
2018-06-05T03:10:25.372Z,19.00
2018-06-05T03:12:56.487Z,15.60
2018-06-05T03:15:27.151Z,20.53
2018-06-05T03:17:58.832Z,18.02
2018-06-05T03:20:29.814Z,14.57
2018-06-05T03:23:01.277Z,19.70
2018-06-05T03:25:31.748Z,16.80
2018-06-05T03:28:02.247Z,16.25
2018-06-05T03:30:33.060Z,17.60
2018-06-05T03:33:04.034Z,18.63
2018-06-05T03:35:34.692Z,18.20
2018-06-05T03:38:05.604Z,16.93
2018-06-05T03:40:36.215Z,15.83
2018-06-05T03:43:07.091Z,20.62
2018-06-05T03:45:38.119Z,18.00
2018-06-05T03:48:08.615Z,22.87
2018-06-05T03:50:39.733Z,24.53
2018-06-05T03:53:10.492Z,21.80
2018-06-05T03:55:40.976Z,16.93
2018-06-05T03:58:11.401Z,17.63
2018-06-05T04:00:42.137Z,20.40
2018-06-05T04:03:12.878Z,16.30
2018-06-05T04:05:43.797Z,16.03
2018-06-05T04:08:14.309Z,19.10
2018-06-05T04:10:45.067Z,16.90
2018-06-05T04:13:15.582Z,17.70
2018-06-05T04:15:46.160Z,17.47
2018-06-05T04:18:16.598Z,18.77
2018-06-05T04:20:47.060Z,20.07
2018-06-05T04:23:17.300Z,24.13
2018-06-05T04:25:47.715Z,20.27
2018-06-05T04:28:19.708Z,23.30
2018-06-05T04:30:50.917Z,20.53
2018-06-05T04:33:21.519Z,23.10
2018-06-05T04:35:51.645Z,18.27
2018-06-05T04:38:22.047Z,18.67
2018-06-05T04:40:52.841Z,21.60
2018-06-05T04:43:23.874Z,20.73
2018-06-05T04:45:54.722Z,19.17
2018-06-05T04:48:25.379Z,20.27
2018-06-05T04:50:56.576Z,19.75
2018-06-05T04:53:27.349Z,26.00
2018-06-05T04:55:57.937Z,45.40
2018-06-05T04:58:28.580Z,46.07
2018-06-05T05:00:59.086Z,84.00
2018-06-05T05:03:29.769Z,56.33
2018-06-05T05:06:00.647Z,28.60
2018-06-05T05:08:31.288Z,22.10
2018-06-05T05:11:02.159Z,25.10
2018-06-05T05:13:32.716Z,32.23
2018-06-05T05:16:03.730Z,36.55
2018-06-05T05:18:34.114Z,23.00
2018-06-05T05:21:04.837Z,25.00
2018-06-05T05:23:35.377Z,30.30
2018-06-05T05:26:05.986Z,31.97
2018-06-05T05:28:36.750Z,31.77
2018-06-05T05:31:07.274Z,32.30
2018-06-05T05:33:39.013Z,29.60
2018-06-05T05:36:09.594Z,34.77
2018-06-05T05:38:40.518Z,32.87
2018-06-05T05:41:11.358Z,26.93
2018-06-05T05:43:41.803Z,23.17
2018-06-05T05:46:12.463Z,25.40
2018-06-05T05:48:43.292Z,21.63
2018-06-05T05:51:13.889Z,17.73
2018-06-05T05:53:45.947Z,20.80
2018-06-05T05:56:16.609Z,19.53
2018-06-05T05:58:47.125Z,17.90
2018-06-05T06:01:17.982Z,19.23
2018-06-05T06:03:48.694Z,23.50
2018-06-05T06:06:19.165Z,21.23
2018-06-05T06:08:50.643Z,20.47
2018-06-05T06:11:21.045Z,21.23
2018-06-05T06:13:51.665Z,19.43
2018-06-05T06:16:22.319Z,23.73
2018-06-05T06:18:53.244Z,19.40
2018-06-05T06:21:24.083Z,18.13
2018-06-05T06:23:54.970Z,16.27
2018-06-05T06:26:25.737Z,18.73
2018-06-05T06:28:56.496Z,16.23
2018-06-05T06:31:26.931Z,14.57
2018-06-05T06:33:57.211Z,16.57
2018-06-05T06:36:27.751Z,20.73
2018-06-05T06:38:58.652Z,16.20
2018-06-05T06:41:29.199Z,19.07
2018-06-05T06:43:59.850Z,15.03
2018-06-05T06:46:30.468Z,16.80
2018-06-05T06:49:00.978Z,16.40
2018-06-05T06:51:31.476Z,20.70
2018-06-05T06:54:02.221Z,16.93
2018-06-05T06:56:32.860Z,19.30
2018-06-05T06:59:04.543Z,22.30
2018-06-05T07:01:35.286Z,15.83
2018-06-05T07:04:06.362Z,20.00
2018-06-05T07:06:36.846Z,20.20
2018-06-05T07:09:09.248Z,15.35
2018-06-05T07:11:39.864Z,15.07
2018-06-05T07:14:10.789Z,16.20
2018-06-05T07:16:41.279Z,12.90
2018-06-05T07:19:11.551Z,16.10
2018-06-05T07:21:42.130Z,17.73
2018-06-05T07:24:12.801Z,13.63
2018-06-05T07:26:43.849Z,14.80
2018-06-05T07:29:14.535Z,15.73
2018-06-05T07:31:45.117Z,18.33
2018-06-05T07:34:15.609Z,16.97
2018-06-05T07:36:46.148Z,14.27
2018-06-05T07:39:16.975Z,15.77
2018-06-05T07:41:47.612Z,20.47
2018-06-05T07:44:18.240Z,23.37
2018-06-05T07:46:48.639Z,14.27
2018-06-05T07:49:19.539Z,15.50
2018-06-05T07:51:51.255Z,17.83
2018-06-05T07:54:22.005Z,14.60
2018-06-05T07:56:52.536Z,15.57
2018-06-05T07:59:24.526Z,14.00
2018-06-05T08:01:55.125Z,17.13
2018-06-05T08:04:27.009Z,18.43
2018-06-05T08:06:58.312Z,15.20
2018-06-05T08:09:29.375Z,24.73
2018-06-05T08:11:59.955Z,16.80
2018-06-05T08:14:30.839Z,15.47
2018-06-05T08:17:01.200Z,18.67
2018-06-05T08:19:32.168Z,18.03
2018-06-05T08:22:02.831Z,20.47
2018-06-05T08:24:34.390Z,17.20
2018-06-05T08:27:04.600Z,16.48
2018-06-05T08:29:34.645Z,16.70
2018-06-05T08:32:05.284Z,21.97
2018-06-05T08:34:35.893Z,20.30
2018-06-05T08:37:07.081Z,16.20
2018-06-05T08:39:37.660Z,20.27
2018-06-05T08:42:08.819Z,16.17
2018-06-05T08:44:39.077Z,14.50
2018-06-05T08:47:10.272Z,14.63
2018-06-05T08:49:40.498Z,14.17
2018-06-05T08:52:11.162Z,15.60
2018-06-05T08:54:40.629Z,15.90
2018-06-05T08:57:12.069Z,16.67
2018-06-05T08:59:42.639Z,13.00
2018-06-05T09:02:13.378Z,15.37
2018-06-05T09:04:43.850Z,15.70
2018-06-05T09:07:14.483Z,19.27
2018-06-05T09:09:44.950Z,15.60
2018-06-05T09:12:15.440Z,20.23
2018-06-05T09:14:46.013Z,19.07
2018-06-05T09:17:17.640Z,14.97
2018-06-05T09:19:48.200Z,12.43
2018-06-05T09:22:19.959Z,14.17
2018-06-05T09:24:51.529Z,13.83
2018-06-05T09:27:22.088Z,12.93
2018-06-05T09:29:52.756Z,13.93
2018-06-05T09:32:23.556Z,13.27
2018-06-05T09:34:54.329Z,14.30
2018-06-05T09:37:25.643Z,17.33
2018-06-05T09:39:56.041Z,12.87
2018-06-05T09:42:26.613Z,12.07
2018-06-05T09:44:57.204Z,15.10
2018-06-05T09:47:28.517Z,18.10
2018-06-05T09:49:59.427Z,19.70
2018-06-05T09:52:30.485Z,13.97
2018-06-05T09:55:01.284Z,14.13
2018-06-05T09:57:33.129Z,14.87
2018-06-05T10:00:04.176Z,15.95
2018-06-05T10:02:34.757Z,16.93
2018-06-05T10:05:05.710Z,12.78
2018-06-05T10:07:36.017Z,19.90
2018-06-05T10:10:06.622Z,18.13
2018-06-05T10:12:37.883Z,14.30
2018-06-05T10:15:08.402Z,21.10
2018-06-05T10:17:38.952Z,15.57
2018-06-05T10:20:09.548Z,17.10
2018-06-05T10:22:40.454Z,14.90
2018-06-05T10:25:11.056Z,17.67
2018-06-05T10:27:41.794Z,19.50
2018-06-05T10:30:12.342Z,14.20
2018-06-05T10:32:44.055Z,13.13
2018-06-05T10:35:14.593Z,12.00
2018-06-05T10:37:45.253Z,14.47
2018-06-05T10:40:16.309Z,16.43
2018-06-05T10:42:46.799Z,14.70
2018-06-05T10:45:17.357Z,12.40
2018-06-05T10:47:48.239Z,12.50
2018-06-05T10:50:18.804Z,11.80
2018-06-05T10:52:49.059Z,13.27
2018-06-05T10:55:19.618Z,14.40
2018-06-05T10:57:51.043Z,13.77
2018-06-05T11:00:21.628Z,11.47
2018-06-05T11:02:52.656Z,14.50
2018-06-05T11:05:23.153Z,11.95
2018-06-05T11:07:53.793Z,13.20
2018-06-05T11:10:24.748Z,17.20
2018-06-05T11:12:55.595Z,14.10
2018-06-05T11:15:26.164Z,12.43
2018-06-05T11:17:56.704Z,13.57
2018-06-05T11:20:27.444Z,14.43
2018-06-05T11:22:58.179Z,16.45
2018-06-05T11:25:28.774Z,11.45
2018-06-05T11:27:59.496Z,11.75
2018-06-05T11:30:30.118Z,12.03
2018-06-05T11:33:00.845Z,12.00
2018-06-05T11:35:31.461Z,18.20
2018-06-05T11:38:02.062Z,12.63
2018-06-05T11:40:32.576Z,11.03
2018-06-05T11:43:02.785Z,11.12
2018-06-05T11:45:33.170Z,17.82
2018-06-05T11:48:04.844Z,13.60
2018-06-05T11:50:35.857Z,10.60
2018-06-05T11:53:06.655Z,11.05
2018-06-05T11:55:37.533Z,11.15
2018-06-05T11:58:08.298Z,10.80
2018-06-05T12:00:38.945Z,11.88
2018-06-05T12:03:09.147Z,12.35
2018-06-05T12:05:39.505Z,12.28
2018-06-05T12:08:11.137Z,10.40
2018-06-05T12:10:41.789Z,12.07
2018-06-05T12:13:12.518Z,13.00
2018-06-05T12:15:43.128Z,11.08
2018-06-05T12:18:13.800Z,11.00
2018-06-05T12:20:44.537Z,10.75
2018-06-05T12:23:15.237Z,9.33
2018-06-05T12:25:46.101Z,12.15
2018-06-05T12:28:17.332Z,10.85
2018-06-05T12:30:47.859Z,11.70
2018-06-05T12:33:18.741Z,14.98
2018-06-05T12:35:49.429Z,9.48
2018-06-05T12:38:21.130Z,10.45
2018-06-05T12:40:51.919Z,9.95
2018-06-05T12:43:22.375Z,9.80
2018-06-05T12:45:52.973Z,12.30
2018-06-05T12:48:23.687Z,9.58
2018-06-05T12:50:54.445Z,13.28
2018-06-05T12:53:25.354Z,14.80
2018-06-05T12:55:55.873Z,10.98
2018-06-05T12:58:26.404Z,10.30
2018-06-05T13:00:56.529Z,9.25
2018-06-05T13:03:26.578Z,10.88
2018-06-05T13:05:57.260Z,13.63
2018-06-05T13:08:27.917Z,9.53
2018-06-05T13:10:58.439Z,10.07
2018-06-05T13:13:29.280Z,11.57
2018-06-05T13:15:59.637Z,14.13
2018-06-05T13:18:30.033Z,11.55
2018-06-05T13:21:00.881Z,10.23
2018-06-05T13:23:31.531Z,9.43
2018-06-05T13:26:02.246Z,9.17
2018-06-05T13:28:33.293Z,8.65
2018-06-05T13:31:04.327Z,9.30
2018-06-05T13:33:34.831Z,9.53
2018-06-05T13:36:05.426Z,9.95
2018-06-05T13:38:36.288Z,17.32
2018-06-05T13:41:06.820Z,9.98
2018-06-05T13:43:37.345Z,10.38
2018-06-05T13:46:07.883Z,15.98
2018-06-05T13:48:38.645Z,11.55
2018-06-05T13:51:09.515Z,17.27
2018-06-05T13:53:40.024Z,11.83
2018-06-05T13:56:11.293Z,11.43
2018-06-05T13:58:41.775Z,13.10
2018-06-05T14:01:12.768Z,15.48
2018-06-05T14:03:43.292Z,12.57
2018-06-05T14:06:13.935Z,14.00
2018-06-05T14:08:44.452Z,11.40
2018-06-05T14:11:15.680Z,15.53
2018-06-05T14:13:46.824Z,11.15
2018-06-05T14:16:17.957Z,10.75
2018-06-05T14:18:49.029Z,16.17
2018-06-05T14:21:19.480Z,12.35
2018-06-05T14:23:50.754Z,16.37
2018-06-05T14:26:21.265Z,13.18
2018-06-05T14:28:52.104Z,16.02
2018-06-05T14:31:22.655Z,16.75
2018-06-05T14:33:53.772Z,12.82
2018-06-05T14:36:23.910Z,13.18
2018-06-05T14:38:54.440Z,11.35
2018-06-05T14:41:25.037Z,11.10
2018-06-05T14:43:55.713Z,11.95
2018-06-05T14:46:26.236Z,11.15
2018-06-05T14:48:57.848Z,11.12
2018-06-05T14:51:28.717Z,11.10
2018-06-05T14:53:59.273Z,10.35
2018-06-05T14:56:29.866Z,11.20
2018-06-05T14:59:00.483Z,10.13
2018-06-05T15:01:31.060Z,10.88
2018-06-05T15:04:01.687Z,13.53
2018-06-05T15:06:32.281Z,10.55
2018-06-05T15:09:03.018Z,10.32
2018-06-05T15:11:33.939Z,10.05
2018-06-05T15:14:04.488Z,13.60
2018-06-05T15:16:35.095Z,13.32
2018-06-05T15:19:05.892Z,14.85
2018-06-05T15:21:36.580Z,14.80
2018-06-05T15:24:07.325Z,11.10
2018-06-05T15:26:37.836Z,10.80
2018-06-05T15:29:08.461Z,14.20
2018-06-05T15:31:38.991Z,12.18
2018-06-05T15:34:09.565Z,11.53
2018-06-05T15:36:40.055Z,16.20
2018-06-05T15:39:10.911Z,14.60
2018-06-05T15:41:41.686Z,12.07
2018-06-05T15:44:12.344Z,11.63
2018-06-05T15:46:42.868Z,13.60
2018-06-05T15:49:13.417Z,16.87
2018-06-05T15:51:43.994Z,10.63
2018-06-05T15:54:14.564Z,13.00
2018-06-05T15:56:45.022Z,13.30
2018-06-05T15:59:15.601Z,11.25
2018-06-05T16:01:46.370Z,13.95
2018-06-05T16:04:17.227Z,14.20
2018-06-05T16:06:47.791Z,12.40
2018-06-05T16:09:18.680Z,13.48
2018-06-05T16:11:49.145Z,14.78
2018-06-05T16:14:19.880Z,18.73
2018-06-05T16:16:50.545Z,14.05
2018-06-05T16:19:21.199Z,10.38
2018-06-05T16:21:52.489Z,13.88
2018-06-05T16:24:23.122Z,10.90
2018-06-05T16:26:53.661Z,12.98
2018-06-05T16:29:25.488Z,10.72
2018-06-05T16:31:56.163Z,12.88
2018-06-05T16:34:26.677Z,10.80
2018-06-05T16:36:57.857Z,12.10
2018-06-05T16:39:29.105Z,11.45
2018-06-05T16:41:59.667Z,12.47
2018-06-05T16:44:30.392Z,11.68
2018-06-05T16:47:01.253Z,13.30
2018-06-05T16:49:32.980Z,12.17
2018-06-05T16:52:03.516Z,12.27
2018-06-05T16:54:34.032Z,15.43
2018-06-05T16:57:04.682Z,13.25
2018-06-05T16:59:35.694Z,17.50
2018-06-05T17:02:06.176Z,9.95
2018-06-05T17:04:37.806Z,10.08
2018-06-05T17:07:08.354Z,13.63
2018-06-05T17:09:38.938Z,13.45
2018-06-05T17:12:09.462Z,10.35
2018-06-05T17:14:40.021Z,9.45
2018-06-05T17:17:10.589Z,11.10
2018-06-05T17:19:41.734Z,9.10
2018-06-05T17:22:12.253Z,10.60
2018-06-05T17:24:42.876Z,11.30
2018-06-05T17:27:13.214Z,10.45
2018-06-05T17:29:43.807Z,10.78
2018-06-05T17:32:14.324Z,8.78
2018-06-05T17:34:44.839Z,9.43
2018-06-05T17:37:15.358Z,12.00
2018-06-05T17:39:46.111Z,8.48
2018-06-05T17:42:16.781Z,10.58
2018-06-05T17:44:46.977Z,9.25
2018-06-05T17:47:17.790Z,9.50
2018-06-05T17:49:48.668Z,18.12
2018-06-05T17:52:18.911Z,12.53
2018-06-05T17:54:50.342Z,8.80
2018-06-05T17:57:20.927Z,8.63
2018-06-05T17:59:52.500Z,10.75
2018-06-05T18:02:23.320Z,19.05
2018-06-05T18:04:54.521Z,11.43
2018-06-05T18:07:25.389Z,8.20
2018-06-05T18:09:55.952Z,19.92
2018-06-05T18:12:27.181Z,8.83
2018-06-05T18:14:57.843Z,9.33
2018-06-05T18:17:28.403Z,10.00
2018-06-05T18:19:59.304Z,8.00
2018-06-05T18:22:29.850Z,8.95
2018-06-05T18:25:00.380Z,8.95
2018-06-05T18:27:31.203Z,8.35
2018-06-05T18:30:02.205Z,11.73
2018-06-05T18:32:32.908Z,13.40
2018-06-05T18:35:05.220Z,9.98
2018-06-05T18:37:35.651Z,11.15
2018-06-05T18:40:07.270Z,8.05
2018-06-05T18:42:38.337Z,8.53
2018-06-05T18:45:08.959Z,10.32
2018-06-05T18:47:39.465Z,8.80
2018-06-05T18:50:10.404Z,8.73
2018-06-05T18:52:41.299Z,8.05
2018-06-05T18:55:12.806Z,10.20
2018-06-05T18:57:43.387Z,12.53
2018-06-05T19:00:13.978Z,13.37
2018-06-05T19:02:44.585Z,9.37
2018-06-05T19:05:15.161Z,8.90
2018-06-05T19:07:45.705Z,13.70
2018-06-05T19:10:16.936Z,8.73
2018-06-05T19:12:47.394Z,7.80
2018-06-05T19:15:18.236Z,7.90
2018-06-05T19:17:49.033Z,9.33
2018-06-05T19:20:19.883Z,12.23
2018-06-05T19:22:50.549Z,14.43
2018-06-05T19:25:21.070Z,11.73
2018-06-05T19:27:52.667Z,11.73
2018-06-05T19:30:23.241Z,12.27
2018-06-05T19:32:53.760Z,13.40
2018-06-05T19:35:24.314Z,12.03
2018-06-05T19:37:55.077Z,12.10
2018-06-05T19:40:26.284Z,9.77
2018-06-05T19:42:56.841Z,13.20
2018-06-05T19:45:27.426Z,9.83
2018-06-05T19:47:57.957Z,8.85
2018-06-05T19:50:28.867Z,12.43
2018-06-05T19:52:59.373Z,8.75
2018-06-05T19:55:29.967Z,8.97
2018-06-05T19:58:00.789Z,8.70
2018-06-05T20:00:31.728Z,9.30
2018-06-05T20:03:02.202Z,13.98
2018-06-05T20:05:33.227Z,8.27
2018-06-05T20:08:03.697Z,8.10
2018-06-05T20:10:35.268Z,9.27
2018-06-05T20:13:06.224Z,8.60
2018-06-05T20:15:36.732Z,11.50
2018-06-05T20:18:07.213Z,13.68
2018-06-05T20:20:38.818Z,9.43
2018-06-05T20:23:09.348Z,8.80
2018-06-05T20:25:39.876Z,11.13
2018-06-05T20:28:10.433Z,10.45
2018-06-05T20:30:40.962Z,8.37
2018-06-05T20:33:11.422Z,13.67
2018-06-05T20:35:41.973Z,9.87
2018-06-05T20:38:12.681Z,13.33
2018-06-05T20:40:43.715Z,11.03
2018-06-05T20:43:14.423Z,11.10
2018-06-05T20:45:45.038Z,9.80
2018-06-05T20:48:15.868Z,10.33
2018-06-05T20:50:46.512Z,10.70
2018-06-05T20:53:17.359Z,8.30
2018-06-05T20:55:48.335Z,9.70
2018-06-05T20:58:18.873Z,10.50
2018-06-05T21:00:51.010Z,11.83
2018-06-05T21:03:22.351Z,8.90
2018-06-05T21:05:53.507Z,7.73
2018-06-05T21:08:24.289Z,8.57
2018-06-05T21:10:54.828Z,11.20
2018-06-05T21:13:25.265Z,10.33
2018-06-05T21:15:57.186Z,9.27
2018-06-05T21:18:27.645Z,9.13
2018-06-05T21:20:58.513Z,9.03
2018-06-05T21:23:29.011Z,15.80
2018-06-05T21:25:59.517Z,9.88
2018-06-05T21:28:29.995Z,9.23
2018-06-05T21:31:00.506Z,8.90
2018-06-05T21:33:31.019Z,11.40
2018-06-05T21:36:01.515Z,14.13
2018-06-05T21:38:31.986Z,10.03
2018-06-05T21:41:02.543Z,12.82
2018-06-05T21:43:33.039Z,11.77
2018-06-05T21:46:03.665Z,11.68
2018-06-05T21:48:34.809Z,12.33
2018-06-05T21:51:05.401Z,9.63
2018-06-05T21:53:35.837Z,12.27
2018-06-05T21:56:06.524Z,12.95
2018-06-05T21:58:37.222Z,9.70
2018-06-05T22:01:07.764Z,11.18
2018-06-05T22:03:38.269Z,10.20
2018-06-05T22:06:08.746Z,11.30
2018-06-05T22:08:39.781Z,9.00
2018-06-05T22:11:10.286Z,12.55
2018-06-05T22:13:40.814Z,13.83
2018-06-05T22:16:11.645Z,10.73
2018-06-05T22:18:42.609Z,14.10
2018-06-05T22:21:13.200Z,12.70
2018-06-05T22:23:43.889Z,9.27
2018-06-05T22:26:14.602Z,13.00
2018-06-05T22:28:45.074Z,15.10
2018-06-05T22:31:15.572Z,10.57
2018-06-05T22:33:46.266Z,10.57
2018-06-05T22:36:17.461Z,10.00
2018-06-05T22:38:47.996Z,12.30
2018-06-05T22:41:18.448Z,11.50
2018-06-05T22:43:49.123Z,12.50
2018-06-05T22:46:19.627Z,17.33
2018-06-05T22:48:50.099Z,17.83
2018-06-05T22:51:20.583Z,10.80
2018-06-05T22:53:50.839Z,13.33
2018-06-05T22:56:21.413Z,12.80
2018-06-05T22:58:51.945Z,12.23
2018-06-05T23:01:22.660Z,11.67
2018-06-05T23:03:53.123Z,14.93
2018-06-05T23:06:23.335Z,11.90
2018-06-05T23:08:53.972Z,12.83
2018-06-05T23:11:24.531Z,14.05
2018-06-05T23:13:54.986Z,13.30
2018-06-05T23:16:26.033Z,11.65
2018-06-05T23:18:56.569Z,12.20
2018-06-05T23:21:26.690Z,11.70
2018-06-05T23:23:57.576Z,14.00
2018-06-05T23:26:28.075Z,13.37
2018-06-05T23:28:58.938Z,15.88
2018-06-05T23:31:29.661Z,14.17
2018-06-05T23:34:00.688Z,13.97
2018-06-05T23:36:31.174Z,19.50
2018-06-05T23:39:02.276Z,12.67
2018-06-05T23:41:32.750Z,12.63
2018-06-05T23:44:03.253Z,14.60
2018-06-05T23:46:33.718Z,14.90
2018-06-05T23:49:04.296Z,12.03
2018-06-05T23:51:35.890Z,11.73
2018-06-05T23:54:06.118Z,11.70
2018-06-05T23:56:36.541Z,12.53
2018-06-05T23:59:07.097Z,13.10
